Time;durP1;ratioP1;P1;durP2;ratioP2;P2;SDS_P1;SDS_P2;PMS_P1;PMS_P2;Temp;Humidity;BMP_temperature;BMP_pressure;BME280_temperature;BME280_humidity;BME280_pressure;Samples;Min_cycle;Max_cycle;Signal;HPM_P1;HPM_P2
2021/10/03 00:01:16;;;;;;;;;1.75;1.75;;;;;;;;2773831;51;8769;-57
2021/10/03 00:03:45;;;;;;;;;0.25;0.25;;;;;;;;2773754;51;8777;-58
2021/10/03 00:06:11;;;;;;;;;0.00;0.00;;;;;;;;2773714;51;8769;-58
2021/10/03 00:08:37;;;;;;;;;1.00;1.00;;;;;;;;2773501;51;8835;-58
2021/10/03 00:11:03;;;;;;;;;0.33;0.33;;;;;;;;2773785;51;8793;-57
2021/10/03 00:13:28;;;;;;;;;1.25;1.25;;;;;;;;2773768;51;8765;-58
2021/10/03 00:15:54;;;;;;;;;5.67;2.00;;;;;;;;2773601;51;8765;-59
2021/10/03 00:18:20;;;;;;;;;1.75;1.75;;;;;;;;2773730;51;8781;-58
2021/10/03 00:20:46;;;;;;;;;0.67;0.00;;;;;;;;2773605;51;8781;-58
2021/10/03 00:23:12;;;;;;;;;1.00;1.00;;;;;;;;2773469;51;9000;-57
2021/10/03 00:25:38;;;;;;;;;2.00;1.00;;;;;;;;2773893;51;8895;-57
2021/10/03 00:28:06;;;;;;;;;1.00;1.00;;;;;;;;2773483;51;8885;-56
2021/10/03 00:30:31;;;;;;;;;1.75;1.75;;;;;;;;2773484;51;8769;-58
2021/10/03 00:32:57;;;;;;;;;0.00;0.00;;;;;;;;2773673;51;8765;-58
2021/10/03 00:35:23;;;;;;;;;0.67;0.67;;;;;;;;2773596;51;9422;-57
2021/10/03 00:37:49;;;;;;;;;4.33;0.33;;;;;;;;2773612;51;8904;-57
2021/10/03 00:40:15;;;;;;;;;4.00;1.00;;;;;;;;2773460;51;10773;-58
2021/10/03 00:42:41;;;;;;;;;1.00;1.00;;;;;;;;2773481;51;8777;-57
2021/10/03 00:45:07;;;;;;;;;1.00;1.00;;;;;;;;2773640;51;9835;-56
2021/10/03 00:47:33;;;;;;;;;1.00;1.00;;;;;;;;2773649;51;8785;-58
2021/10/03 00:49:59;;;;;;;;;2.00;2.00;;;;;;;;2773782;51;8781;-57
2021/10/03 00:52:24;;;;;;;;;1.00;1.00;;;;;;;;2773394;51;8785;-57
2021/10/03 00:54:50;;;;;;;;;0.33;0.33;;;;;;;;2773549;51;8761;-57
2021/10/03 00:57:16;;;;;;;;;0.50;0.25;;;;;;;;2773023;51;8796;-59
2021/10/03 00:59:42;;;;;;;;;2.67;2.67;;;;;;;;2773570;51;8777;-58
2021/10/03 01:02:07;;;;;;;;;0.00;0.00;;;;;;;;2773452;51;9469;-57
2021/10/03 01:04:33;;;;;;;;;0.00;0.00;;;;;;;;2773585;51;8769;-57
2021/10/03 01:06:59;;;;;;;;;2.67;2.00;;;;;;;;2773185;51;8773;-58
2021/10/03 01:09:25;;;;;;;;;1.50;1.00;;;;;;;;2773334;51;8780;-58
2021/10/03 01:11:50;;;;;;;;;1.00;1.00;;;;;;;;2773374;51;8923;-58
2021/10/03 01:14:16;;;;;;;;;1.67;0.67;;;;;;;;2773413;51;8897;-57
2021/10/03 01:16:42;;;;;;;;;1.50;1.50;;;;;;;;2773293;51;8773;-57
2021/10/03 01:19:08;;;;;;;;;0.00;0.00;;;;;;;;2773284;51;8795;-57
2021/10/03 01:21:34;;;;;;;;;0.67;0.67;;;;;;;;2773038;51;11364;-57
2021/10/03 01:23:59;;;;;;;;;1.00;1.00;;;;;;;;2773249;51;11358;-58
2021/10/03 01:26:26;;;;;;;;;1.00;1.00;;;;;;;;2773271;51;8787;-58
2021/10/03 01:28:53;;;;;;;;;1.75;1.50;;;;;;;;2773345;51;8828;-57
2021/10/03 01:31:20;;;;;;;;;0.00;0.00;;;;;;;;2773312;51;8770;-58
2021/10/03 01:33:45;;;;;;;;;1.00;1.00;;;;;;;;2773403;51;8813;-57
2021/10/03 01:36:11;;;;;;;;;1.00;1.00;;;;;;;;2773432;51;8793;-58
2021/10/03 01:38:37;;;;;;;;;0.33;0.33;;;;;;;;2773409;51;8837;-58
2021/10/03 01:41:03;;;;;;;;;2.75;1.00;;;;;;;;2773193;51;8883;-58
2021/10/03 01:43:28;;;;;;;;;1.00;1.00;;;;;;;;2773216;51;8777;-58
2021/10/03 01:45:54;;;;;;;;;1.00;1.00;;;;;;;;2773252;51;9490;-57
2021/10/03 01:48:21;;;;;;;;;1.00;1.00;;;;;;;;2773223;51;8931;-57
2021/10/03 01:50:49;;;;;;;;;1.00;1.00;;;;;;;;2773150;51;8974;-58
2021/10/03 01:53:17;;;;;;;;;1.00;1.00;;;;;;;;2773174;51;9038;-58
2021/10/03 01:55:44;;;;;;;;;4.25;1.00;;;;;;;;2773308;51;8781;-57
2021/10/03 01:58:10;;;;;;;;;0.25;0.25;;;;;;;;2773210;51;8795;-58
2021/10/03 02:00:37;;;;;;;;;0.00;0.00;;;;;;;;2773125;51;9429;-57
2021/10/03 02:03:04;;;;;;;;;2.00;2.00;;;;;;;;2773482;51;8883;-57
2021/10/03 02:05:41;;;;;;;;;1.50;1.50;;;;;;;;2773236;51;8777;-59
2021/10/03 02:08:08;;;;;;;;;0.50;0.50;;;;;;;;2773282;51;8793;-58
2021/10/03 02:10:35;;;;;;;;;2.00;1.00;;;;;;;;2772756;51;8808;-57
2021/10/03 02:13:01;;;;;;;;;2.00;1.00;;;;;;;;2773273;51;8781;-57
2021/10/03 02:15:27;;;;;;;;;1.50;1.50;;;;;;;;2773169;51;8785;-58
2021/10/03 02:17:52;;;;;;;;;0.00;0.00;;;;;;;;2773175;51;8776;-57
2021/10/03 02:20:19;;;;;;;;;2.00;2.00;;;;;;;;2773265;51;8774;-58
2021/10/03 02:22:45;;;;;;;;;1.00;1.00;;;;;;;;2772847;51;8776;-58
2021/10/03 02:25:11;;;;;;;;;4.00;2.00;;;;;;;;2773083;51;8765;-57
2021/10/03 02:27:36;;;;;;;;;1.00;1.00;;;;;;;;2773051;51;10248;-59
2021/10/03 02:30:04;;;;;;;;;4.00;2.00;;;;;;;;2773055;51;8796;-57
2021/10/03 02:32:31;;;;;;;;;5.50;1.00;;;;;;;;2773176;51;8781;-56
2021/10/03 02:34:56;;;;;;;;;0.33;0.33;;;;;;;;2773199;51;8872;-58
2021/10/03 02:37:23;;;;;;;;;0.33;0.33;;;;;;;;2773046;51;8788;-56
2021/10/03 02:39:48;;;;;;;;;0.50;0.25;;;;;;;;2773041;51;8883;-57
2021/10/03 02:42:14;;;;;;;;;1.00;1.00;;;;;;;;2773201;51;8765;-58
2021/10/03 02:44:40;;;;;;;;;0.67;0.67;;;;;;;;2772991;51;8773;-57
2021/10/03 02:47:12;;;;;;;;;1.00;1.00;;;;;;;;2772963;51;8765;-58
2021/10/03 02:49:42;;;;;;;;;1.00;1.00;;;;;;;;2773396;51;8757;-56
2021/10/03 02:52:09;;;;;;;;;0.50;0.50;;;;;;;;2773014;51;8864;-59
2021/10/03 02:54:35;;;;;;;;;0.75;0.75;;;;;;;;2773069;51;8761;-58
2021/10/03 02:57:01;;;;;;;;;0.75;0.50;;;;;;;;2773006;51;8765;-57
2021/10/03 02:59:26;;;;;;;;;1.67;1.00;;;;;;;;2773092;51;8794;-57
2021/10/03 03:01:52;;;;;;;;;1.33;1.33;;;;;;;;2773063;51;8847;-56
2021/10/03 03:04:17;;;;;;;;;1.00;1.00;;;;;;;;2771580;51;8792;-58
2021/10/03 03:06:43;;;;;;;;;2.00;2.00;;;;;;;;2772689;51;8780;-58
2021/10/03 03:09:09;;;;;;;;;5.33;1.00;;;;;;;;2772211;51;8911;-58
2021/10/03 03:11:35;;;;;;;;;3.50;1.50;;;;;;;;2772821;51;8797;-60
2021/10/03 03:14:00;;;;;;;;;4.00;2.00;;;;;;;;2772820;51;8878;-58
2021/10/03 03:16:26;;;;;;;;;8.00;3.33;;;;;;;;2772549;51;8785;-56
2021/10/03 03:18:51;;;;;;;;;1.00;1.00;;;;;;;;2772780;51;8785;-59
2021/10/03 03:21:17;;;;;;;;;2.00;2.00;;;;;;;;2772857;51;8934;-57
2021/10/03 03:23:43;;;;;;;;;2.00;2.00;;;;;;;;2772863;51;8785;-58
2021/10/03 03:26:09;;;;;;;;;3.33;2.00;;;;;;;;2773335;51;9398;-58
2021/10/03 03:28:34;;;;;;;;;2.67;1.33;;;;;;;;2772803;51;9431;-57
2021/10/03 03:31:00;;;;;;;;;7.00;4.00;;;;;;;;2772514;51;11419;-57
2021/10/03 03:33:25;;;;;;;;;4.33;2.67;;;;;;;;2772585;51;8788;-58
2021/10/03 03:35:51;;;;;;;;;4.00;2.00;;;;;;;;2773139;51;8784;-58
2021/10/03 03:38:17;;;;;;;;;4.00;1.67;;;;;;;;2772795;51;8777;-60
2021/10/03 03:40:42;;;;;;;;;3.33;1.00;;;;;;;;2772979;51;8781;-58
2021/10/03 03:43:08;;;;;;;;;4.00;2.00;;;;;;;;2772992;51;9394;-59
2021/10/03 03:45:33;;;;;;;;;2.00;2.00;;;;;;;;2772777;51;8887;-59
2021/10/03 03:48:01;;;;;;;;;4.33;2.00;;;;;;;;2772917;51;8793;-58
2021/10/03 03:50:28;;;;;;;;;3.00;1.25;;;;;;;;2772626;51;8773;-58
2021/10/03 03:52:54;;;;;;;;;1.50;1.50;;;;;;;;2772922;51;8762;-58
2021/10/03 03:55:20;;;;;;;;;1.00;1.00;;;;;;;;2772914;51;8811;-58
2021/10/03 03:57:45;;;;;;;;;4.00;4.00;;;;;;;;2772780;51;8858;-59
2021/10/03 04:00:11;;;;;;;;;6.00;2.67;;;;;;;;2772739;51;8789;-57
2021/10/03 04:02:38;;;;;;;;;1.75;1.75;;;;;;;;2772908;51;8863;-58
2021/10/03 04:05:04;;;;;;;;;4.75;4.00;;;;;;;;2772725;51;8766;-58
2021/10/03 04:07:30;;;;;;;;;4.75;3.50;;;;;;;;2772856;51;8810;-57
2021/10/03 04:09:56;;;;;;;;;5.33;5.00;;;;;;;;2772992;51;8785;-57
2021/10/03 04:12:21;;;;;;;;;8.00;2.67;;;;;;;;2772781;51;8880;-59
2021/10/03 04:14:47;;;;;;;;;0.67;0.67;;;;;;;;2772755;51;8769;-58
2021/10/03 04:17:12;;;;;;;;;4.67;4.33;;;;;;;;2772652;51;8773;-59
2021/10/03 04:19:38;;;;;;;;;3.33;2.00;;;;;;;;2772635;51;9532;-60
2021/10/03 04:22:04;;;;;;;;;2.00;2.00;;;;;;;;2772791;51;8769;-59
2021/10/03 04:24:29;;;;;;;;;2.67;2.67;;;;;;;;2772597;51;9517;-57
2021/10/03 04:26:55;;;;;;;;;2.00;2.00;;;;;;;;2772816;51;8777;-59
2021/10/03 04:29:20;;;;;;;;;5.00;2.00;;;;;;;;2772503;51;8805;-59
2021/10/03 04:31:46;;;;;;;;;1.00;1.00;;;;;;;;2772587;51;8887;-58
2021/10/03 04:34:12;;;;;;;;;2.00;2.00;;;;;;;;2772580;51;9467;-57
2021/10/03 04:36:38;;;;;;;;;4.00;4.00;;;;;;;;2772719;51;8769;-57
2021/10/03 04:39:04;;;;;;;;;2.00;1.25;;;;;;;;2772637;51;8777;-61
2021/10/03 04:41:29;;;;;;;;;1.25;1.00;;;;;;;;2772490;51;8879;-59
2021/10/03 04:43:55;;;;;;;;;2.00;1.00;;;;;;;;2773262;51;8889;-58
2021/10/03 04:46:20;;;;;;;;;4.67;1.33;;;;;;;;2773686;51;8783;-58
2021/10/03 04:48:46;;;;;;;;;4.67;1.00;;;;;;;;2773621;51;8939;-59
2021/10/03 04:51:12;;;;;;;;;1.00;1.00;;;;;;;;2773614;51;8773;-58
2021/10/03 04:53:37;;;;;;;;;5.33;2.33;;;;;;;;2773490;51;8892;-58
2021/10/03 04:56:03;;;;;;;;;1.33;1.33;;;;;;;;2773601;51;8777;-57
2021/10/03 04:58:29;;;;;;;;;1.00;1.00;;;;;;;;2773707;51;9412;-57
2021/10/03 05:00:55;;;;;;;;;1.00;1.00;;;;;;;;2773795;51;8846;-57
2021/10/03 05:03:21;;;;;;;;;0.00;0.00;;;;;;;;2773459;51;8896;-58
2021/10/03 05:05:46;;;;;;;;;2.67;1.67;;;;;;;;2773487;51;8769;-57
2021/10/03 05:08:12;;;;;;;;;1.00;1.00;;;;;;;;2773523;51;8812;-59
2021/10/03 05:10:38;;;;;;;;;2.00;2.00;;;;;;;;2773492;51;8793;-57
2021/10/03 05:13:04;;;;;;;;;1.00;1.00;;;;;;;;2773747;51;8769;-59
2021/10/03 05:15:30;;;;;;;;;1.00;1.00;;;;;;;;2773988;51;8777;-58
2021/10/03 05:17:56;;;;;;;;;1.00;1.00;;;;;;;;2775380;51;9704;-57
2021/10/03 05:20:21;;;;;;;;;1.00;1.00;;;;;;;;2775794;51;8785;-61
2021/10/03 05:22:47;;;;;;;;;1.00;1.00;;;;;;;;2775596;51;8775;-59
2021/10/03 05:25:13;;;;;;;;;1.00;1.00;;;;;;;;2775451;51;8867;-56
2021/10/03 05:27:38;;;;;;;;;1.00;1.00;;;;;;;;2775635;51;9427;-57
2021/10/03 05:30:04;;;;;;;;;1.00;1.00;;;;;;;;2775489;51;8951;-60
2021/10/03 05:32:30;;;;;;;;;1.00;1.00;;;;;;;;2775644;51;8786;-60
2021/10/03 05:34:56;;;;;;;;;2.50;1.50;;;;;;;;2775390;51;8812;-60
2021/10/03 05:37:21;;;;;;;;;1.25;1.00;;;;;;;;2775462;51;8838;-59
2021/10/03 05:39:47;;;;;;;;;1.00;1.00;;;;;;;;2775137;51;8889;-59
2021/10/03 05:42:12;;;;;;;;;1.50;1.50;;;;;;;;2775393;51;8781;-59
2021/10/03 05:44:38;;;;;;;;;1.00;1.00;;;;;;;;2775282;51;8782;-58
2021/10/03 05:47:04;;;;;;;;;3.00;3.00;;;;;;;;2775477;51;8785;-60
2021/10/03 05:49:29;;;;;;;;;3.00;3.00;;;;;;;;2774843;51;8789;-60
2021/10/03 05:51:55;;;;;;;;;3.25;3.25;;;;;;;;2775370;51;8790;-62
2021/10/03 05:54:20;;;;;;;;;3.00;2.00;;;;;;;;2775180;51;8793;-58
2021/10/03 05:56:46;;;;;;;;;3.00;3.00;;;;;;;;2775100;51;9581;-59
2021/10/03 05:59:12;;;;;;;;;2.75;2.75;;;;;;;;2775253;51;8794;-60
2021/10/03 06:01:39;;;;;;;;;3.60;2.80;;;;;;;;2775043;51;8778;-58
2021/10/03 06:04:04;;;;;;;;;2.40;1.60;;;;;;;;2775103;51;8773;-58
2021/10/03 06:06:30;;;;;;;;;2.00;2.00;;;;;;;;2775265;51;8778;-58
2021/10/03 06:08:56;;;;;;;;;2.25;2.25;;;;;;;;2775110;51;8841;-59
2021/10/03 06:11:21;;;;;;;;;2.50;1.25;;;;;;;;2775200;51;8904;-59
2021/10/03 06:13:47;;;;;;;;;2.25;2.00;;;;;;;;2780261;51;8785;-58
2021/10/03 06:16:12;;;;;;;;;1.00;1.00;;;;;;;;2775030;51;8790;-59
2021/10/03 06:18:38;;;;;;;;;1.00;1.00;;;;;;;;2775454;51;8864;-58
2021/10/03 06:21:11;;;;;;;;;2.00;1.00;;;;;;;;2775346;51;8774;-60
2021/10/03 06:23:36;;;;;;;;;1.40;1.40;;;;;;;;2775637;51;8818;-59
2021/10/03 06:26:02;;;;;;;;;1.00;1.00;;;;;;;;2775317;51;8779;-61
2021/10/03 06:28:28;;;;;;;;;3.00;2.00;;;;;;;;2775004;51;8802;-59
2021/10/03 06:30:53;;;;;;;;;3.00;3.00;;;;;;;;2774968;51;8773;-58
2021/10/03 06:33:19;;;;;;;;;3.00;2.50;;;;;;;;2775309;51;8766;-60
2021/10/03 06:35:44;;;;;;;;;3.00;2.00;;;;;;;;2775266;51;8795;-60
2021/10/03 06:38:10;;;;;;;;;4.50;2.50;;;;;;;;2775256;51;8864;-60
2021/10/03 06:40:36;;;;;;;;;1.00;1.00;;;;;;;;2775063;51;8781;-62
2021/10/03 06:43:02;;;;;;;;;2.00;1.00;;;;;;;;2775208;51;8771;-57
2021/10/03 06:45:27;;;;;;;;;3.00;2.00;;;;;;;;2774943;51;8773;-59
2021/10/03 06:47:53;;;;;;;;;4.00;3.00;;;;;;;;2775236;51;9206;-59
2021/10/03 06:50:19;;;;;;;;;6.50;5.00;;;;;;;;2774896;51;8871;-59
2021/10/03 06:52:45;;;;;;;;;7.00;5.00;;;;;;;;2775215;51;8777;-60
2021/10/03 06:55:10;;;;;;;;;3.75;3.75;;;;;;;;2775142;51;8787;-57
2021/10/03 06:57:36;;;;;;;;;6.00;5.00;;;;;;;;2774913;51;11462;-59
2021/10/03 07:00:03;;;;;;;;;2.00;2.00;;;;;;;;2774803;51;8786;-59
2021/10/03 07:02:30;;;;;;;;;3.80;3.00;;;;;;;;2774971;51;8871;-59
2021/10/03 07:04:56;;;;;;;;;3.80;3.80;;;;;;;;2774799;51;8797;-59
2021/10/03 07:07:22;;;;;;;;;3.25;3.25;;;;;;;;2775215;51;8781;-58
2021/10/03 07:09:48;;;;;;;;;5.00;5.00;;;;;;;;2774789;51;8801;-58
2021/10/03 07:12:14;;;;;;;;;4.00;4.00;;;;;;;;2774855;51;9007;-59
2021/10/03 07:14:42;;;;;;;;;6.00;5.00;;;;;;;;2774914;51;9452;-59
2021/10/03 07:17:08;;;;;;;;;2.80;2.80;;;;;;;;2774974;51;10730;-60
2021/10/03 07:19:34;;;;;;;;;6.00;5.40;;;;;;;;2774636;51;8778;-60
2021/10/03 07:22:01;;;;;;;;;8.00;4.00;;;;;;;;2775032;51;8796;-62
2021/10/03 07:24:26;;;;;;;;;3.00;3.00;;;;;;;;2775071;51;8774;-59
2021/10/03 07:26:52;;;;;;;;;3.00;3.00;;;;;;;;2774979;51;8807;-59
2021/10/03 07:29:17;;;;;;;;;4.25;3.00;;;;;;;;2774909;51;8810;-59
2021/10/03 07:31:43;;;;;;;;;2.75;2.75;;;;;;;;2774770;51;8806;-58
2021/10/03 07:34:09;;;;;;;;;4.00;3.75;;;;;;;;2774581;51;8782;-59
2021/10/03 07:36:34;;;;;;;;;3.00;3.00;;;;;;;;2774907;51;8800;-60
2021/10/03 07:39:00;;;;;;;;;1.50;1.50;;;;;;;;2774924;51;8775;-59
2021/10/03 07:41:26;;;;;;;;;2.00;2.00;;;;;;;;2774759;51;8875;-59
2021/10/03 07:43:54;;;;;;;;;0.80;0.80;;;;;;;;2775033;51;11113;-60
2021/10/03 07:46:20;;;;;;;;;0.80;0.80;;;;;;;;2774705;51;8917;-58
2021/10/03 07:48:45;;;;;;;;;0.00;0.00;;;;;;;;2774668;51;9445;-59
2021/10/03 07:51:11;;;;;;;;;0.00;0.00;;;;;;;;2774656;51;8787;-57
2021/10/03 07:53:37;;;;;;;;;1.00;1.00;;;;;;;;2774767;51;8785;-60
2021/10/03 07:56:03;;;;;;;;;1.00;1.00;;;;;;;;2774212;51;8782;-60
2021/10/03 07:58:28;;;;;;;;;2.00;1.00;;;;;;;;2774496;51;8817;-58
2021/10/03 08:00:54;;;;;;;;;0.25;0.25;;;;;;;;2774926;51;10317;-58
2021/10/03 08:03:21;;;;;;;;;2.00;2.00;;;;;;;;2774801;51;8770;-58
2021/10/03 08:05:47;;;;;;;;;2.00;2.00;;;;;;;;2772715;51;8872;-60
2021/10/03 08:08:12;;;;;;;;;1.50;1.50;;;;;;;;2772689;51;9014;-59
2021/10/03 08:10:38;;;;;;;;;1.00;1.00;;;;;;;;2772723;51;8793;-58
2021/10/03 08:13:04;;;;;;;;;1.00;1.00;;;;;;;;2772774;51;9426;-59
2021/10/03 08:15:29;;;;;;;;;0.00;0.00;;;;;;;;2772819;51;8773;-58
2021/10/03 08:17:55;;;;;;;;;1.00;1.00;;;;;;;;2773402;51;8769;-58
2021/10/03 08:20:21;;;;;;;;;0.00;0.00;;;;;;;;2773664;51;8787;-61
2021/10/03 08:22:47;;;;;;;;;0.75;0.75;;;;;;;;2773827;51;8777;-58
2021/10/03 08:25:13;;;;;;;;;0.60;0.00;;;;;;;;2773646;51;9301;-59
2021/10/03 08:27:38;;;;;;;;;0.00;0.00;;;;;;;;2773586;51;9476;-60
2021/10/03 08:30:06;;;;;;;;;0.00;0.00;;;;;;;;2773704;51;8800;-60
2021/10/03 08:32:32;;;;;;;;;0.00;0.00;;;;;;;;2773625;51;8777;-59
2021/10/03 08:34:58;;;;;;;;;0.00;0.00;;;;;;;;2773889;51;8857;-60
2021/10/03 08:37:23;;;;;;;;;0.00;0.00;;;;;;;;2773797;51;8769;-59
2021/10/03 08:39:49;;;;;;;;;0.00;0.00;;;;;;;;2773528;51;8777;-60
2021/10/03 08:42:15;;;;;;;;;0.00;0.00;;;;;;;;2773655;51;8805;-60
2021/10/03 08:44:41;;;;;;;;;0.00;0.00;;;;;;;;2773784;51;8837;-60
2021/10/03 08:47:07;;;;;;;;;0.00;0.00;;;;;;;;2773623;51;9839;-59
2021/10/03 08:49:33;;;;;;;;;0.00;0.00;;;;;;;;2773683;51;8833;-59
2021/10/03 08:51:59;;;;;;;;;0.00;0.00;;;;;;;;2773782;51;8813;-61
2021/10/03 08:54:24;;;;;;;;;0.00;0.00;;;;;;;;2773681;51;8784;-59
2021/10/03 08:56:50;;;;;;;;;0.00;0.00;;;;;;;;2773574;51;8777;-59
2021/10/03 08:59:15;;;;;;;;;0.00;0.00;;;;;;;;2773660;51;8781;-60
2021/10/03 09:01:53;;;;;;;;;0.00;0.00;;;;;;;;2773954;51;8765;-59
2021/10/03 09:04:24;;;;;;;;;0.00;0.00;;;;;;;;2773581;51;8773;-61
2021/10/03 09:07:00;;;;;;;;;0.00;0.00;;;;;;;;2773506;51;8774;-58
2021/10/03 09:09:44;;;;;;;;;0.00;0.00;;;;;;;;2773425;51;8849;-58
2021/10/03 09:12:22;;;;;;;;;0.00;0.00;;;;;;;;2773516;51;9412;-62
2021/10/03 09:14:48;;;;;;;;;0.00;0.00;;;;;;;;2773375;51;8777;-60
2021/10/03 09:17:17;;;;;;;;;0.00;0.00;;;;;;;;2773965;51;8783;-60
2021/10/03 09:20:21;;;;;;;;;0.00;0.00;;;;;;;;2773777;51;8825;-59
2021/10/03 09:22:52;;;;;;;;;0.00;0.00;;;;;;;;2761099;52;8774;-60
2021/10/03 09:25:37;;;;;;;;;0.00;0.00;;;;;;;;2760630;52;8774;-61
2021/10/03 09:28:04;;;;;;;;;0.00;0.00;;;;;;;;2768652;51;8770;-59
2021/10/03 09:30:29;;;;;;;;;0.00;0.00;;;;;;;;2773188;51;8768;-60
2021/10/03 09:32:56;;;;;;;;;0.00;0.00;;;;;;;;2773456;51;8800;-59
2021/10/03 09:35:32;;;;;;;;;0.00;0.00;;;;;;;;2773580;51;8777;-59
2021/10/03 09:37:57;;;;;;;;;0.00;0.00;;;;;;;;2773419;51;8800;-61
2021/10/03 09:40:24;;;;;;;;;0.00;0.00;;;;;;;;2773385;51;8784;-61
2021/10/03 09:42:53;;;;;;;;;0.00;0.00;;;;;;;;2773407;51;8784;-63
2021/10/03 09:45:24;;;;;;;;;0.00;0.00;;;;;;;;2773684;51;8814;-62
2021/10/03 09:48:06;;;;;;;;;0.00;0.00;;;;;;;;2773273;51;8785;-61
2021/10/03 09:50:32;;;;;;;;;0.00;0.00;;;;;;;;2773424;51;8854;-59
2021/10/03 09:52:58;;;;;;;;;0.00;0.00;;;;;;;;2773441;51;8765;-60
2021/10/03 09:55:27;;;;;;;;;0.00;0.00;;;;;;;;2773389;51;8809;-62
2021/10/03 09:57:54;;;;;;;;;0.00;0.00;;;;;;;;2773425;51;8796;-60
2021/10/03 10:00:20;;;;;;;;;0.00;0.00;;;;;;;;2773402;51;8809;-59
2021/10/03 10:02:46;;;;;;;;;0.00;0.00;;;;;;;;2773219;51;8789;-59
2021/10/03 10:05:12;;;;;;;;;0.00;0.00;;;;;;;;2773648;51;8769;-61
2021/10/03 10:07:38;;;;;;;;;0.00;0.00;;;;;;;;2773196;51;8796;-59
2021/10/03 10:10:05;;;;;;;;;0.00;0.00;;;;;;;;2773118;51;8793;-58
2021/10/03 10:12:34;;;;;;;;;0.25;0.00;;;;;;;;2772980;51;8782;-57
2021/10/03 10:15:01;;;;;;;;;0.00;0.00;;;;;;;;2773280;51;8777;-58
2021/10/03 10:17:31;;;;;;;;;1.00;0.00;;;;;;;;2773527;51;8772;-59
2021/10/03 10:19:58;;;;;;;;;0.00;0.00;;;;;;;;2773249;51;8800;-61
2021/10/03 10:22:28;;;;;;;;;0.00;0.00;;;;;;;;2773236;51;8780;-59
2021/10/03 10:24:54;;;;;;;;;0.00;0.00;;;;;;;;2773190;51;8792;-59
2021/10/03 10:27:28;;;;;;;;;0.00;0.00;;;;;;;;2773329;51;8777;-59
2021/10/03 10:29:57;;;;;;;;;0.00;0.00;;;;;;;;2773145;51;9390;-60
2021/10/03 10:32:27;;;;;;;;;0.00;0.00;;;;;;;;2773092;51;8788;-58
2021/10/03 10:35:16;;;;;;;;;0.00;0.00;;;;;;;;2773213;51;8891;-60
2021/10/03 10:37:56;;;;;;;;;0.00;0.00;;;;;;;;2771692;51;8858;-60
2021/10/03 10:40:25;;;;;;;;;0.00;0.00;;;;;;;;2772638;51;8887;-60
2021/10/03 10:42:53;;;;;;;;;0.00;0.00;;;;;;;;2773043;51;8874;-59
2021/10/03 10:45:27;;;;;;;;;0.00;0.00;;;;;;;;2773183;51;8765;-60
2021/10/03 10:48:08;;;;;;;;;0.00;0.00;;;;;;;;2773107;51;8781;-62
2021/10/03 10:50:35;;;;;;;;;0.00;0.00;;;;;;;;2773010;51;8851;-60
2021/10/03 10:53:22;;;;;;;;;0.00;0.00;;;;;;;;2773192;51;8802;-60
2021/10/03 10:56:06;;;;;;;;;0.00;0.00;;;;;;;;2773158;51;9520;-61
2021/10/03 10:58:35;;;;;;;;;0.00;0.00;;;;;;;;2773075;51;8884;-61
2021/10/03 11:01:24;;;;;;;;;0.00;0.00;;;;;;;;2773119;51;8769;-60
2021/10/03 11:03:52;;;;;;;;;0.00;0.00;;;;;;;;2771659;51;8850;-59
2021/10/03 11:06:21;;;;;;;;;0.00;0.00;;;;;;;;2772648;51;8784;-60
2021/10/03 11:09:06;;;;;;;;;0.00;0.00;;;;;;;;2773132;51;8883;-58
2021/10/03 11:11:33;;;;;;;;;0.00;0.00;;;;;;;;2772829;51;9506;-61
2021/10/03 11:14:00;;;;;;;;;0.00;0.00;;;;;;;;2773091;51;8777;-60
2021/10/03 11:16:51;;;;;;;;;0.00;0.00;;;;;;;;2773042;51;8879;-61
2021/10/03 11:19:21;;;;;;;;;0.00;0.00;;;;;;;;2773067;51;8939;-60
2021/10/03 11:21:57;;;;;;;;;0.00;0.00;;;;;;;;2773111;51;8790;-60
2021/10/03 11:24:24;;;;;;;;;0.00;0.00;;;;;;;;2773222;51;8800;-61
2021/10/03 11:26:52;;;;;;;;;0.00;0.00;;;;;;;;2772948;51;8970;-60
2021/10/03 11:29:20;;;;;;;;;0.00;0.00;;;;;;;;2772649;51;8817;-61
2021/10/03 11:31:48;;;;;;;;;0.00;0.00;;;;;;;;2773384;51;8899;-60
2021/10/03 11:34:27;;;;;;;;;0.00;0.00;;;;;;;;2773017;51;8765;-62
2021/10/03 11:36:53;;;;;;;;;0.00;0.00;;;;;;;;2772963;51;8770;-60
2021/10/03 11:39:38;;;;;;;;;0.00;0.00;;;;;;;;2772839;51;9499;-60
2021/10/03 11:42:06;;;;;;;;;0.00;0.00;;;;;;;;2772881;51;9113;-60
2021/10/03 11:44:32;;;;;;;;;1.00;0.00;;;;;;;;2772909;51;8787;-61
2021/10/03 11:46:59;;;;;;;;;0.00;0.00;;;;;;;;2773013;51;8891;-59
2021/10/03 11:49:26;;;;;;;;;0.00;0.00;;;;;;;;2772854;51;8911;-65
2021/10/03 11:51:51;;;;;;;;;0.00;0.00;;;;;;;;2773270;51;9569;-61
2021/10/03 11:54:27;;;;;;;;;0.00;0.00;;;;;;;;2773953;51;8899;-59
2021/10/03 11:56:53;;;;;;;;;0.00;0.00;;;;;;;;2774072;51;8851;-60
2021/10/03 11:59:19;;;;;;;;;0.00;0.00;;;;;;;;2773848;51;8801;-59
2021/10/03 12:01:45;;;;;;;;;0.00;0.00;;;;;;;;2774205;51;8789;-61
2021/10/03 12:04:23;;;;;;;;;0.00;0.00;;;;;;;;2773874;51;8769;-62
2021/10/03 12:06:49;;;;;;;;;0.00;0.00;;;;;;;;2773939;51;8874;-59
2021/10/03 12:09:17;;;;;;;;;0.00;0.00;;;;;;;;2773666;51;8785;-59
2021/10/03 12:11:49;;;;;;;;;0.00;0.00;;;;;;;;2773675;51;8826;-61
2021/10/03 12:14:15;;;;;;;;;0.00;0.00;;;;;;;;2773833;51;8777;-59
2021/10/03 12:16:52;;;;;;;;;0.00;0.00;;;;;;;;2773669;51;8792;-62
2021/10/03 12:19:18;;;;;;;;;0.00;0.00;;;;;;;;2773691;51;8937;-61
2021/10/03 12:21:44;;;;;;;;;0.00;0.00;;;;;;;;2773581;51;8880;-60
2021/10/03 12:24:11;;;;;;;;;0.25;0.00;;;;;;;;2773612;51;8761;-60
2021/10/03 12:26:41;;;;;;;;;0.00;0.00;;;;;;;;2773700;51;8789;-62
2021/10/03 12:29:08;;;;;;;;;0.00;0.00;;;;;;;;2773532;51;8803;-60
2021/10/03 12:31:43;;;;;;;;;0.00;0.00;;;;;;;;2773527;51;8789;-61
2021/10/03 12:34:14;;;;;;;;;0.00;0.00;;;;;;;;2773630;51;8793;-61
2021/10/03 12:36:49;;;;;;;;;0.00;0.00;;;;;;;;2773755;51;8785;-62
2021/10/03 12:39:15;;;;;;;;;0.00;0.00;;;;;;;;2773541;51;8793;-58
2021/10/03 12:41:41;;;;;;;;;0.00;0.00;;;;;;;;2773569;51;9556;-61
2021/10/03 12:44:06;;;;;;;;;0.00;0.00;;;;;;;;2773720;51;8773;-61
2021/10/03 12:46:33;;;;;;;;;0.00;0.00;;;;;;;;2773609;51;8761;-61
2021/10/03 12:48:59;;;;;;;;;0.00;0.00;;;;;;;;2773515;51;9459;-61
2021/10/03 12:51:24;;;;;;;;;0.00;0.00;;;;;;;;2773816;51;8781;-60
2021/10/03 12:53:50;;;;;;;;;0.67;0.00;;;;;;;;2773759;51;8777;-62
2021/10/03 12:56:16;;;;;;;;;0.00;0.00;;;;;;;;2773793;51;8781;-62
2021/10/03 12:58:42;;;;;;;;;0.00;0.00;;;;;;;;2773623;51;8797;-62
2021/10/03 13:01:08;;;;;;;;;0.00;0.00;;;;;;;;2773693;51;8772;-61
2021/10/03 13:03:37;;;;;;;;;0.00;0.00;;;;;;;;2773223;51;8773;-63
2021/10/03 13:06:03;;;;;;;;;0.00;0.00;;;;;;;;2773620;51;8773;-61
2021/10/03 13:08:29;;;;;;;;;0.00;0.00;;;;;;;;2773436;51;8781;-62
2021/10/03 13:10:54;;;;;;;;;0.00;0.00;;;;;;;;2773506;51;8781;-61
2021/10/03 13:13:20;;;;;;;;;0.00;0.00;;;;;;;;2773538;51;8785;-61
2021/10/03 13:15:45;;;;;;;;;0.00;0.00;;;;;;;;2773444;51;8793;-62
2021/10/03 13:18:11;;;;;;;;;0.00;0.00;;;;;;;;2773458;51;8785;-61
2021/10/03 13:20:37;;;;;;;;;0.00;0.00;;;;;;;;2773473;51;8769;-61
2021/10/03 13:23:02;;;;;;;;;0.00;0.00;;;;;;;;2773507;51;8883;-61
2021/10/03 13:25:28;;;;;;;;;0.00;0.00;;;;;;;;2773481;51;8919;-61
2021/10/03 13:27:53;;;;;;;;;0.00;0.00;;;;;;;;2773495;51;8777;-60
2021/10/03 13:30:19;;;;;;;;;0.00;0.00;;;;;;;;2773839;51;8789;-60
2021/10/03 13:32:45;;;;;;;;;0.00;0.00;;;;;;;;2773541;51;8784;-61
2021/10/03 13:35:11;;;;;;;;;0.50;0.00;;;;;;;;2773454;51;8793;-61
2021/10/03 13:37:37;;;;;;;;;0.00;0.00;;;;;;;;2773391;51;8785;-62
2021/10/03 13:40:03;;;;;;;;;0.00;0.00;;;;;;;;2773282;51;11431;-61
2021/10/03 13:42:30;;;;;;;;;0.00;0.00;;;;;;;;2773443;51;8788;-60
2021/10/03 13:44:55;;;;;;;;;0.00;0.00;;;;;;;;2773481;51;8769;-61
2021/10/03 13:47:21;;;;;;;;;0.00;0.00;;;;;;;;2773329;51;11221;-61
2021/10/03 13:49:48;;;;;;;;;0.00;0.00;;;;;;;;2773340;51;9378;-59
2021/10/03 13:52:14;;;;;;;;;0.00;0.00;;;;;;;;2773331;51;8787;-60
2021/10/03 13:54:39;;;;;;;;;0.00;0.00;;;;;;;;2773343;51;8757;-64
2021/10/03 13:57:05;;;;;;;;;0.00;0.00;;;;;;;;2773267;51;8777;-62
2021/10/03 13:59:31;;;;;;;;;0.00;0.00;;;;;;;;2773251;51;8820;-62
2021/10/03 14:01:56;;;;;;;;;0.00;0.00;;;;;;;;2773366;51;8792;-59
2021/10/03 14:04:22;;;;;;;;;0.00;0.00;;;;;;;;2773633;51;8796;-61
2021/10/03 14:06:48;;;;;;;;;0.00;0.00;;;;;;;;2773344;51;8773;-60
2021/10/03 14:09:13;;;;;;;;;2.00;0.00;;;;;;;;2773145;51;8777;-60
2021/10/03 14:11:39;;;;;;;;;0.67;0.00;;;;;;;;2773135;51;8781;-64
2021/10/03 14:14:04;;;;;;;;;0.00;0.00;;;;;;;;2773269;51;8888;-59
2021/10/03 14:16:30;;;;;;;;;0.00;0.00;;;;;;;;2773381;51;8757;-61
2021/10/03 14:18:56;;;;;;;;;0.00;0.00;;;;;;;;2773144;51;8805;-61
2021/10/03 14:21:21;;;;;;;;;0.00;0.00;;;;;;;;2773334;51;8859;-60
2021/10/03 14:23:47;;;;;;;;;0.00;0.00;;;;;;;;2773646;51;8795;-61
2021/10/03 14:26:12;;;;;;;;;0.00;0.00;;;;;;;;2773361;51;8781;-61
2021/10/03 14:28:38;;;;;;;;;0.75;0.25;;;;;;;;2773255;51;8785;-61
2021/10/03 14:31:03;;;;;;;;;0.00;0.00;;;;;;;;2773157;51;8877;-59
2021/10/03 14:33:29;;;;;;;;;0.00;0.00;;;;;;;;2773135;51;8769;-60
2021/10/03 14:35:55;;;;;;;;;0.00;0.00;;;;;;;;2773196;51;9470;-62
2021/10/03 14:38:20;;;;;;;;;0.00;0.00;;;;;;;;2772660;51;8797;-61
2021/10/03 14:40:46;;;;;;;;;0.00;0.00;;;;;;;;2773050;51;8781;-62
2021/10/03 14:43:12;;;;;;;;;0.00;0.00;;;;;;;;2773033;51;8777;-64
2021/10/03 14:45:38;;;;;;;;;0.00;0.00;;;;;;;;2773143;51;9612;-61
2021/10/03 14:48:04;;;;;;;;;0.00;0.00;;;;;;;;2773201;51;8770;-61
2021/10/03 14:50:29;;;;;;;;;1.00;0.00;;;;;;;;2773082;51;8789;-62
2021/10/03 14:52:55;;;;;;;;;0.00;0.00;;;;;;;;2773212;51;8884;-60
2021/10/03 14:55:21;;;;;;;;;0.00;0.00;;;;;;;;2773186;51;8809;-60